MSC Sinfonia — H8XH — position and weather

sailwx.info

Track history (hours):
 
Tides and Currents Weather Stations Pressure Air Temp Water Temp Dewpoint Dewpoint Depression Visibility Wind Speed Wind Dir Waves Ship Positions

MSC Sinfonia

Last reported at 2014-Oct-29 17:28 UTC. Time now 2014-Oct-30 14:28 UTC.
Position N 32°15' W 016°49'.

Length 251 m; draft 6.8 m.

Type: Passenger vessel. MMSI: 356715971.

Date/timePositionNaut miles runAvg speedWind from/ knotsBaromVisibWave heightAir tempDewpointWater temp
2014-Oct-29 17:28N 32°15' W 016°49'1718.5
2014-Oct-29 16:34N 32°32' W 016°52'7 7.2
2014-Oct-29 15:34N 32°39' W 016°55'0 0.0
2014-Oct-29 14:34N 32°39' W 016°55'0 0.0
2014-Oct-29 13:34N 32°39' W 016°55'0 0.0
2014-Oct-29 12:34N 32°39' W 016°55'0 0.0
2014-Oct-29 11:34N 32°39' W 016°55'0 0.0
2014-Oct-29 10:34N 32°39' W 016°55'34714.5
2014-Oct-28 10:33N 34°39' W 010°23'2319.3
2014-Oct-28 09:21N 34°47' W 009°58'13319.6
2014-Oct-28 02:33N 35°35' W 007°25'2020.2
2014-Oct-28 01:33N 35°42' W 007°02'2520.4
2014-Oct-28 00:19N 35°51' W 006°33'1520.1
2014-Oct-27 23:33N 35°57' W 006°15'3919.0
2014-Oct-27 21:31N 36°01' W 005°27'22310.1
2014-Oct-26 23:32N 37°12' W 001°05'1918.8
2014-Oct-26 22:32N 37°24' W 000°46'1818.4
2014-Oct-26 21:33N 37°37' W 000°30'2218.8
2014-Oct-26 20:23N 37°53' W 000°12'1518.5
2014-Oct-26 19:33N 38°05' E 000°01'5918.7
2014-Oct-26 16:23N 38°49' E 000°51'5217.9
2014-Oct-26 13:29N 39°26' E 001°38'1717.8
2014-Oct-26 12:33N 39°37' E 001°54'1717.5
2014-Oct-26 11:33N 39°49' E 002°11'1817.9
2014-Oct-26 10:33N 40°01' E 002°28'1818.0
2014-Oct-26 09:33N 40°13' E 002°46'1818.0
2014-Oct-26 08:33N 40°25' E 003°03'1818.3
2014-Oct-26 07:33N 40°37' E 003°21'10719.8
2014-Oct-26 02:07N 41°49' E 005°07'11019.8
2014-Oct-25 20:33N 43°03' E 006°58'8920.1
2014-Oct-25 16:08N 44°02' E 008°30'1219.9
2014-Oct-25 15:33N 44°10' E 008°42'1716.9
2014-Oct-25 14:33N 44°23' E 008°57'2 0.7
2014-Oct-25 11:28N 44°25' E 008°55'0 0.0
2014-Oct-25 10:22N 44°25' E 008°55'0 0.0
2014-Oct-25 07:22N 44°25' E 008°55'2 2.3
2014-Oct-25 06:33N 44°23' E 008°57'1515.5
2014-Oct-25 05:33N 44°10' E 008°45'7819.4
2014-Oct-25 01:31N 43°22' E 007°20'1819.1
2014-Oct-25 00:33N 43°10' E 007°00'1919.2
2014-Oct-24 23:33N 42°59' E 006°39'6219.5
2014-Oct-24 20:23N 42°29' E 005°25'2020.0
2014-Oct-24 19:22N 42°20' E 005°00'1720.3
2014-Oct-24 18:30N 42°13' E 004°39'2019.5
2014-Oct-24 17:28N 42°03' E 004°15'2019.9
2014-Oct-24 16:28N 41°54' E 003°51'2019.5
2014-Oct-24 15:28N 41°45' E 003°28'2219.3
2014-Oct-24 14:19N 41°35' E 003°02'1919.3
2014-Oct-24 13:22N 41°27' E 002°39'98 6.1
2014-Oct-23 21:14N 40°07' E 001°24'15913.1
2014-Oct-23 09:03N 37°49' W 000°17'713.8
2014-Oct-23 08:33N 37°43' W 000°21'1313.4
2014-Oct-23 07:33N 37°32' W 000°32'1413.7
2014-Oct-23 06:32N 37°23' W 000°45'23416.7
2014-Oct-22 16:33N 35°60' W 005°17'  
Track history (hours):
 
Tides and Currents Weather Stations Pressure Air Temp Water Temp Dewpoint Dewpoint Depression Visibility Wind Speed Wind Dir Waves Ship Positions

MSC Sinfonia

Last reported at 2014-Oct-29 17:28 UTC. Time now 2014-Oct-30 14:28 UTC.
Position N 32°15' W 016°49'.

Length 251 m; draft 6.8 m.

Type: Passenger vessel. MMSI: 356715971.

Date/timePositionNaut miles runAvg speedWind from/ knotsBaromVisibWave heightAir tempDewpointWater temp
2014-Oct-29 17:28N 32°15' W 016°49'1718.5
2014-Oct-29 16:34N 32°32' W 016°52'7 7.2
2014-Oct-29 15:34N 32°39' W 016°55'0 0.0
2014-Oct-29 14:34N 32°39' W 016°55'0 0.0
2014-Oct-29 13:34N 32°39' W 016°55'0 0.0
2014-Oct-29 12:34N 32°39' W 016°55'0 0.0
2014-Oct-29 11:34N 32°39' W 016°55'0 0.0
2014-Oct-29 10:34N 32°39' W 016°55'34714.5
2014-Oct-28 10:33N 34°39' W 010°23'2319.3
2014-Oct-28 09:21N 34°47' W 009°58'13319.6
2014-Oct-28 02:33N 35°35' W 007°25'2020.2
2014-Oct-28 01:33N 35°42' W 007°02'2520.4
2014-Oct-28 00:19N 35°51' W 006°33'1520.1
2014-Oct-27 23:33N 35°57' W 006°15'3919.0
2014-Oct-27 21:31N 36°01' W 005°27'22310.1
2014-Oct-26 23:32N 37°12' W 001°05'1918.8
2014-Oct-26 22:32N 37°24' W 000°46'1818.4
2014-Oct-26 21:33N 37°37' W 000°30'2218.8
2014-Oct-26 20:23N 37°53' W 000°12'1518.5
2014-Oct-26 19:33N 38°05' E 000°01'5918.7
2014-Oct-26 16:23N 38°49' E 000°51'5217.9
2014-Oct-26 13:29N 39°26' E 001°38'1717.8
2014-Oct-26 12:33N 39°37' E 001°54'1717.5
2014-Oct-26 11:33N 39°49' E 002°11'1817.9
2014-Oct-26 10:33N 40°01' E 002°28'1818.0
2014-Oct-26 09:33N 40°13' E 002°46'1818.0
2014-Oct-26 08:33N 40°25' E 003°03'1818.3
2014-Oct-26 07:33N 40°37' E 003°21'10719.8
2014-Oct-26 02:07N 41°49' E 005°07'11019.8
2014-Oct-25 20:33N 43°03' E 006°58'8920.1
2014-Oct-25 16:08N 44°02' E 008°30'1219.9
2014-Oct-25 15:33N 44°10' E 008°42'1716.9
2014-Oct-25 14:33N 44°23' E 008°57'2 0.7
2014-Oct-25 11:28N 44°25' E 008°55'0 0.0
2014-Oct-25 10:22N 44°25' E 008°55'0 0.0
2014-Oct-25 07:22N 44°25' E 008°55'2 2.3
2014-Oct-25 06:33N 44°23' E 008°57'1515.5
2014-Oct-25 05:33N 44°10' E 008°45'7819.4
2014-Oct-25 01:31N 43°22' E 007°20'1819.1
2014-Oct-25 00:33N 43°10' E 007°00'1919.2
2014-Oct-24 23:33N 42°59' E 006°39'6219.5
2014-Oct-24 20:23N 42°29' E 005°25'2020.0
2014-Oct-24 19:22N 42°20' E 005°00'1720.3
2014-Oct-24 18:30N 42°13' E 004°39'2019.5
2014-Oct-24 17:28N 42°03' E 004°15'2019.9
2014-Oct-24 16:28N 41°54' E 003°51'2019.5
2014-Oct-24 15:28N 41°45' E 003°28'2219.3
2014-Oct-24 14:19N 41°35' E 003°02'1919.3
2014-Oct-24 13:22N 41°27' E 002°39'98 6.1
2014-Oct-23 21:14N 40°07' E 001°24'15913.1
2014-Oct-23 09:03N 37°49' W 000°17'713.8
2014-Oct-23 08:33N 37°43' W 000°21'1313.4
2014-Oct-23 07:33N 37°32' W 000°32'1413.7
2014-Oct-23 06:32N 37°23' W 000°45'23416.7
2014-Oct-22 16:33N 35°60' W 005°17'  

Dump ship's entire track history